Home > Products > Valid Products > TAF

000
FTUS43 KEAX 312300
TAFMCI
TAF
KMCI 312320Z 0100/0124 01007KT P6SM FEW250
     FM011200 14008KT P6SM SCT150 SCT200=



000
FTUS43 KEAX 312300
TAFMKC
TAF
KMKC 312320Z 0100/0124 34006KT P6SM SKC
     FM011200 15007KT P6SM SCT150 SCT200=



000
FTUS43 KEAX 312300
TAFSTJ
TAF
KSTJ 312320Z 0100/0124 36007KT P6SM SKC
     FM011200 14008KT P6SM SCT150 SCT200=



000
FTUS43 KEAX 311700
TAFMKC
TAF
KMKC 311726Z 3118/0118 01012KT P6SM SKC
     FM312300 02005KT P6SM FEW200
     FM011200 15007KT P6SM SCT150 SCT200=



000
FTUS43 KEAX 311700
TAFSTJ
TAF
KSTJ 311726Z 3118/0118 01013KT P6SM SKC
     FM312300 02006KT P6SM SCT200
     FM011200 14008KT P6SM SCT150 SCT200=



000
FTUS43 KEAX 311700
TAFMCI
TAF
KMCI 311726Z 3118/0118 01012G20KT P6SM SKC
     FM312300 02006KT P6SM SCT200
     FM011200 14008KT P6SM SCT150 SCT200=



000
FTUS43 KEAX 311100 RRA
TAFSTJ
TAF
KSTJ 311142Z 3112/0112 01014G22KT P6SM SKC
     FM312300 02006KT P6SM SKC=



000
FTUS43 KEAX 311100 RRA
TAFMCI
TAF
KMCI 311142Z 3112/0112 01014G22KT P6SM SKC
     FM312300 02006KT P6SM SKC=



000
FTUS43 KEAX 311100 RRA
TAFMKC
TAF
KMKC 311142Z 3112/0112 01012G20KT P6SM SKC
     FM312300 02005KT P6SM SKC=



000
FTUS43 KEAX 310500
TAFMCI
TAF
KMCI 310520Z 3106/0106 35014G22KT P6SM BKN025
     FM311100 01014G22KT P6SM SKC
     FM312300 02006KT P6SM SKC=



000
FTUS43 KEAX 310500
TAFMKC
TAF
KMKC 310520Z 3106/0106 35012G19KT P6SM BKN025
     FM311100 01012G20KT P6SM SKC
     FM312300 02005KT P6SM SKC=



000
FTUS43 KEAX 310500
TAFSTJ
TAF
KSTJ 310520Z 3106/0106 35014G24KT P6SM BKN025
     FM311000 01014G22KT P6SM SKC
     FM312300 02006KT P6SM SKC=



000
FTUS43 KEAX 302300
TAFSTJ
TAF
KSTJ 302320Z 3100/3124 34012KT P6SM SCT060
     FM310200 34014G20KT P6SM SCT025 SCT040
     FM311200 01013G21KT P6SM SKC
     FM311800 02012KT P6SM SKC=



000
FTUS43 KEAX 302300
TAFMCI
TAF
KMCI 302320Z 3100/3124 32011KT P6SM FEW060
     FM310300 34011KT P6SM BKN025
     FM311300 01013G21KT P6SM SKC
     FM312000 02012KT P6SM SKC=



000
FTUS43 KEAX 302300
TAFMKC
TAF
KMKC 302320Z 3100/3124 32013G19KT P6SM SKC
     FM310300 34010KT P6SM BKN025
     FM311300 01012G20KT P6SM SKC
     FM312000 02012KT P6SM SKC=



000
FTUS43 KEAX 301700
TAFMKC
TAF
KMKC 301732Z 3018/3118 32011G17KT P6SM FEW100
     FM310300 34010KT P6SM SCT025 SCT040
     FM311300 01012G20KT P6SM SKC=



000
FTUS43 KEAX 301700
TAFMCI
TAF
KMCI 301732Z 3018/3118 32012G18KT P6SM FEW100
     FM310300 34011KT P6SM SCT025 SCT040
     FM311300 01013G21KT P6SM SKC=



000
FTUS43 KEAX 301700
TAFSTJ
TAF
KSTJ 301732Z 3018/3118 33013G19KT P6SM FEW100
     FM310200 34014G20KT P6SM SCT025 SCT040
     FM311200 01013G21KT P6SM SKC=



000
FTUS43 KEAX 301700
TAFMKC
TAF
KMKC 301732Z 3018/3118 32011G17KT P6SM FEW100
     FM310300 34010KT P6SM SCT025 SCT040
     FM311300 01012G20KT P6SM SKC=



000
FTUS43 KEAX 301700
TAFMCI
TAF
KMCI 301732Z 3018/3118 32012G18KT P6SM FEW100
     FM310300 34011KT P6SM SCT025 SCT040
     FM311300 01013G21KT P6SM SKC=



000
FTUS43 KEAX 301700
TAFSTJ
TAF
KSTJ 301732Z 3018/3118 33013G19KT P6SM FEW100
     FM310200 34014G20KT P6SM SCT025 SCT040
     FM311200 01013G21KT P6SM SKC=



000
FTUS43 KEAX 301600 AAA
TAFSTJ
TAF AMD
KSTJ 301616Z 3016/3112 33010KT P6SM SKC
     FM301800 33015G23KT P6SM SKC
     FM310200 34008KT P6SM BKN040=



000
FTUS43 KEAX 301600 AAA
TAFMKC
TAF AMD
KMKC 301615Z 3016/3112 28010KT P6SM SCT080
     FM301800 33012G20KT P6SM SKC
     FM310000 34006KT P6SM FEW040=



000
FTUS43 KEAX 301600 AAA
TAFMCI
TAF AMD
KMCI 301614Z 3016/3112 30010KT P6SM SCT100
     FM301800 33014G22KT P6SM SKC
     FM310000 34007KT P6SM SCT040=



000
FTUS43 KEAX 301100
TAFSTJ
TAF
KSTJ 301120Z 3012/3112 21010KT P6SM VCSH BKN100
     FM301500 33015G23KT P6SM SKC
     FM310200 34008KT P6SM BKN040=



000
FTUS43 KEAX 301100
TAFMKC
TAF
KMKC 301120Z 3012/3112 21010KT P6SM VCSH BKN100
     FM301600 33012G20KT P6SM SKC
     FM310000 34006KT P6SM FEW040=



000
FTUS43 KEAX 301100
TAFMCI
TAF
KMCI 301120Z 3012/3112 21010KT P6SM VCSH BKN100
     FM301600 33014G22KT P6SM SKC
     FM310000 34007KT P6SM SCT040=



000
FTUS43 KEAX 300500
TAFSTJ
TAF
KSTJ 300520Z 3006/3106 14007KT P6SM SKC
     FM300900 18007KT P6SM SCT100 WS020/21035KT
     FM301300 22010KT P6SM SCT100
     FM301800 32012G22KT P6SM SKC=



000
FTUS43 KEAX 300500
TAFMKC
TAF
KMKC 300520Z 3006/3106 14005KT P6SM SKC
     FM300900 18007KT P6SM SCT100 WS020/21035KT
     FM301300 22010KT P6SM SCT100
     FM301800 32012G22KT P6SM SKC=



000
FTUS43 KEAX 300500
TAFMCI
TAF
KMCI 300520Z 3006/3106 14007KT P6SM SKC
     FM300900 18007KT P6SM SCT100 WS020/21035KT
     FM301300 22010KT P6SM SCT100
     FM301800 32012G22KT P6SM SKC=



000
FTUS43 KEAX 292300
TAFSTJ
TAF
KSTJ 292320Z 3000/3024 VRB05KT P6SM SKC
     FM300900 18007KT P6SM SCT100 WS020/21035KT
     FM301400 22010KT P6SM SCT100
     FM301800 32012G22KT P6SM SKC=



000
FTUS43 KEAX 292300
TAFMCI
TAF
KMCI 292320Z 3000/3024 VRB05KT P6SM SKC
     FM300900 18007KT P6SM SCT100 WS020/21035KT
     FM301400 22010KT P6SM SCT100
     FM301800 32012G22KT P6SM SKC=



000
FTUS43 KEAX 292300
TAFMKC
TAF
KMKC 292320Z 3000/3024 VRB05KT P6SM SKC
     FM300900 18007KT P6SM SCT100 WS020/21035KT
     FM301400 22010KT P6SM SCT100
     FM301800 32012G22KT P6SM SKC=



000
FTUS43 KEAX 291700
TAFMCI
TAF
KMCI 291720Z 2918/3018 VRB04KT P6SM SKC
     FM300600 18007KT P6SM SCT250=



000
FTUS43 KEAX 291700
TAFMKC
TAF
KMKC 291720Z 2918/3018 VRB04KT P6SM SKC
     FM300600 17006KT P6SM SCT250=



000
FTUS43 KEAX 291700
TAFSTJ
TAF
KSTJ 291720Z 2918/3018 VRB04KT P6SM SKC
     FM300600 17005KT P6SM SCT250=



000
FTUS43 KEAX 291100
TAFMKC
TAF
KMKC 291120Z 2912/3012 33003KT P6SM SKC
     FM300600 14006KT P6SM SKC=



000
FTUS43 KEAX 291100
TAFSTJ
TAF
KSTJ 291120Z 2912/3012 33003KT P6SM SKC
     FM300600 14007KT P6SM SKC=



000
FTUS43 KEAX 291100
TAFMCI
TAF
KMCI 291120Z 2912/3012 33004KT P6SM SKC
     FM300600 14007KT P6SM SKC=



000
FTUS43 KEAX 290500
TAFMKC
TAF
KMKC 290520Z 2906/3006 VRB05KT P6SM SKC
     FM300000 14006KT P6SM SKC=



000
FTUS43 KEAX 290500
TAFMCI
TAF
KMCI 290520Z 2906/3006 32005KT P6SM SKC
     FM300000 14006KT P6SM SKC=



000
FTUS43 KEAX 290500
TAFSTJ
TAF
KSTJ 290520Z 2906/3006 35004KT P6SM SKC
     FM291000 32003KT 3SM BR SKC
      TEMPO 2911/2913 1SM BR FEW001
     FM300000 14006KT P6SM SKC=



    US Dept of Commerce
    National Oceanic and Atmospheric Administration
    National Weather Service
    1325 East West Highway
    Silver Spring, MD 20910
    Page Author: NWS Internet Services Team
Disclaimer
Information Quality
Credits
Glossary
Privacy Policy
Freedom of Information Act (FOIA)
About Us
Career Opportunities